createdAt,value
2022-12-18T00:01:52.036Z,-0.45
2022-12-18T00:02:56.478Z,-0.48
2022-12-18T04:07:08.145Z,-1.63
2022-12-18T04:08:14.369Z,-1.62
2022-12-18T04:09:19.377Z,-1.61
2022-12-18T04:10:22.383Z,-1.95
2022-12-18T04:11:25.824Z,-1.64
2022-12-18T04:12:30.927Z,-1.64
2022-12-18T04:13:37.327Z,-1.67
2022-12-18T04:14:41.970Z,-1.66
2022-12-18T04:15:44.876Z,-1.67
2022-12-18T04:16:49.827Z,-1.69
2022-12-18T04:17:52.892Z,-1.67
2022-12-18T04:18:56.494Z,-1.72
2022-12-18T04:19:59.853Z,-1.73
2022-12-18T04:21:03.653Z,-1.71
2022-12-18T04:22:06.666Z,-1.73
2022-12-18T04:23:10.332Z,-1.76
2022-12-18T04:24:13.587Z,-1.76
2022-12-18T04:25:17.483Z,-1.74
2022-12-18T04:26:23.156Z,-1.73
2022-12-18T04:27:26.515Z,-1.79
2022-12-18T04:28:29.748Z,-1.71
2022-12-18T04:29:33.516Z,-1.72
2022-12-18T04:30:37.527Z,-1.77
2022-12-18T04:31:40.964Z,-1.68
2022-12-18T04:32:47.738Z,-1.74
2022-12-18T04:33:53.779Z,-1.76
2022-12-18T04:34:57.023Z,-1.74
2022-12-18T04:36:00.163Z,-1.75
2022-12-18T04:37:03.872Z,-1.74
2022-12-18T04:38:09.420Z,-1.74
2022-12-18T04:39:13.480Z,-1.72
2022-12-18T04:40:21.335Z,-1.73
2022-12-18T04:41:24.546Z,-1.73
2022-12-18T04:42:27.999Z,-1.72
2022-12-18T04:43:31.275Z,-1.71
2022-12-18T04:44:33.950Z,-1.72
2022-12-18T04:45:36.926Z,-1.75
2022-12-18T04:46:40.282Z,-1.74
2022-12-18T04:47:43.097Z,-1.74
2022-12-18T04:48:47.975Z,-1.75
2022-12-18T04:49:51.234Z,-1.77
2022-12-18T04:50:54.479Z,-1.79
2022-12-18T04:51:57.356Z,-1.81
2022-12-18T04:53:00.135Z,-1.84
2022-12-18T04:54:03.279Z,-1.84
2022-12-18T04:55:06.407Z,-1.84
2022-12-18T04:56:12.065Z,-1.86
2022-12-18T04:57:15.212Z,-1.86
2022-12-18T04:58:18.086Z,-1.87
2022-12-18T04:59:21.033Z,-1.89
2022-12-18T05:00:24.870Z,-1.91
2022-12-18T05:01:34.094Z,-1.91
2022-12-18T05:02:37.579Z,-1.94
2022-12-18T05:03:41.685Z,-1.95
2022-12-18T05:04:45.086Z,-1.98
2022-12-18T05:05:51.787Z,-1.96
2022-12-18T05:06:54.931Z,-1.94
2022-12-18T05:07:57.898Z,-1.93
2022-12-18T05:09:01.345Z,-1.91
2022-12-18T05:10:04.642Z,-1.94
2022-12-18T05:11:12.586Z,-1.94
2022-12-18T05:12:15.552Z,-1.93
2022-12-18T05:13:18.231Z,-1.95
2022-12-18T05:14:21.377Z,-1.93
2022-12-18T05:15:24.117Z,-1.94
2022-12-18T05:16:26.785Z,-1.93
2022-12-18T05:17:29.990Z,-1.92
2022-12-18T05:18:32.954Z,-1.92
2022-12-18T05:19:35.973Z,-1.94
2022-12-18T05:20:38.575Z,-1.93
2022-12-18T05:21:41.583Z,-1.91
2022-12-18T05:22:44.557Z,-1.89
2022-12-18T05:23:47.271Z,-1.90
2022-12-18T05:24:50.287Z,-1.87
2022-12-18T05:26:01.416Z,-1.89
2022-12-18T05:27:04.459Z,-1.87
2022-12-18T05:28:08.162Z,-1.89
2022-12-18T05:29:13.324Z,-1.89
2022-12-18T05:30:17.570Z,-1.90
2022-12-18T05:31:20.702Z,-1.93
2022-12-18T05:32:23.598Z,-1.93
2022-12-18T05:33:29.824Z,-1.93
2022-12-18T05:34:32.462Z,-1.92
2022-12-18T05:35:35.322Z,-2.24
2022-12-18T05:36:37.948Z,-1.95
2022-12-18T05:37:43.243Z,-1.97
2022-12-18T05:38:47.123Z,-1.99
2022-12-18T05:39:49.781Z,-1.98
2022-12-18T05:40:53.742Z,-1.99
2022-12-18T05:41:56.598Z,-2.03
2022-12-18T05:42:59.301Z,-2.00
2022-12-18T05:44:02.862Z,-2.10
2022-12-18T05:45:06.629Z,-2.13
2022-12-18T05:46:13.997Z,-2.16
2022-12-18T05:47:16.801Z,-2.17
2022-12-18T05:48:20.705Z,-2.14
2022-12-18T05:49:23.850Z,-2.14
2022-12-18T05:50:26.464Z,-2.16
2022-12-18T05:51:29.351Z,-2.18
2022-12-18T05:52:32.153Z,-2.20
2022-12-18T05:53:36.031Z,-2.19
2022-12-18T05:54:39.054Z,-2.19
2022-12-18T05:55:43.798Z,-2.18
2022-12-18T05:56:48.744Z,-2.14
2022-12-18T05:57:51.702Z,-2.14
2022-12-18T05:58:55.676Z,-2.12
2022-12-18T05:59:58.836Z,-2.10
2022-12-18T06:01:13.776Z,-2.13
2022-12-18T06:02:16.915Z,-2.14
2022-12-18T06:03:20.238Z,-2.15
2022-12-18T06:04:24.203Z,-2.14
2022-12-18T06:05:26.968Z,-2.16
2022-12-18T06:06:30.156Z,-2.15
2022-12-18T06:07:33.369Z,-2.16
2022-12-18T06:08:36.135Z,-2.15
2022-12-18T06:09:39.228Z,-2.17
2022-12-18T06:10:42.560Z,-2.19
2022-12-18T06:11:45.189Z,-2.20
2022-12-18T06:12:48.189Z,-2.17
2022-12-18T06:13:57.833Z,-2.18
2022-12-18T06:15:01.637Z,-2.22
2022-12-18T06:16:09.248Z,-2.18
2022-12-18T06:17:12.977Z,-2.13
2022-12-18T06:18:16.048Z,-2.14
2022-12-18T06:19:18.812Z,-2.14
2022-12-18T06:20:21.840Z,-2.55
2022-12-18T06:21:24.964Z,-2.14
2022-12-18T06:22:28.639Z,-2.16
2022-12-18T06:23:32.180Z,-2.16
2022-12-18T06:24:35.283Z,-2.16
2022-12-18T06:25:39.703Z,-2.19
2022-12-18T06:26:42.671Z,-2.19
2022-12-18T06:27:45.312Z,-2.14
2022-12-18T06:28:48.754Z,-2.12
2022-12-18T06:29:51.744Z,-2.10
2022-12-18T06:30:55.580Z,-2.12
2022-12-18T06:31:58.223Z,-2.10
2022-12-18T06:33:01.025Z,-2.11
2022-12-18T06:34:05.879Z,-2.13
2022-12-18T06:35:09.724Z,-2.09
2022-12-18T06:36:14.342Z,-2.07
2022-12-18T06:37:17.111Z,-2.04
2022-12-18T06:38:19.840Z,-2.00
2022-12-18T06:39:23.137Z,-1.99
2022-12-18T06:40:25.937Z,-1.98
2022-12-18T06:41:28.749Z,-1.95
2022-12-18T06:42:31.357Z,-1.92
2022-12-18T06:43:34.014Z,-1.92
2022-12-18T06:44:37.411Z,-2.00
2022-12-18T06:45:40.322Z,-1.91
2022-12-18T06:46:43.040Z,-1.87
2022-12-18T06:47:45.953Z,-1.86
2022-12-18T06:48:50.481Z,-1.85
2022-12-18T06:49:53.415Z,-1.81
2022-12-18T06:50:56.496Z,-1.82
2022-12-18T06:51:59.179Z,-1.83
2022-12-18T06:53:01.981Z,-1.78
2022-12-18T06:54:05.832Z,-1.78
2022-12-18T06:55:10.391Z,-1.82
2022-12-18T06:56:13.304Z,-1.84
2022-12-18T06:57:16.264Z,-1.80
2022-12-18T06:58:19.505Z,-1.76
2022-12-18T06:59:22.249Z,-1.75
2022-12-18T07:00:25.177Z,-1.76
2022-12-18T07:01:28.569Z,-1.73
2022-12-18T07:02:31.685Z,-1.75
2022-12-18T07:03:34.515Z,-1.75
2022-12-18T07:04:37.667Z,-1.78
2022-12-18T07:05:42.018Z,-1.72
2022-12-18T07:06:44.722Z,-1.72
2022-12-18T07:07:47.731Z,-1.77
2022-12-18T07:08:51.689Z,-1.78
2022-12-18T07:09:54.528Z,-1.80
2022-12-18T07:10:58.077Z,-1.76
2022-12-18T07:12:00.735Z,-1.72
2022-12-18T07:13:03.382Z,-1.76
2022-12-18T07:14:05.971Z,-1.76
2022-12-18T07:15:09.054Z,-1.74
2022-12-18T07:16:19.691Z,-1.77
2022-12-18T07:17:25.194Z,-1.78
2022-12-18T07:18:28.261Z,-1.75
2022-12-18T07:19:31.328Z,-1.69
2022-12-18T07:20:35.409Z,-1.67
2022-12-18T07:21:38.385Z,-1.68
2022-12-18T07:22:41.547Z,-1.69
2022-12-18T07:23:44.816Z,-1.73
2022-12-18T07:24:47.568Z,-1.73
2022-12-18T07:25:50.635Z,-1.75
2022-12-18T07:26:54.322Z,-1.77
2022-12-18T07:27:57.062Z,-1.75
2022-12-18T07:29:00.225Z,-1.78
2022-12-18T07:30:04.092Z,-1.74
2022-12-18T07:31:09.528Z,-1.77
2022-12-18T07:32:12.794Z,-1.79
2022-12-18T07:33:16.713Z,-1.82
2022-12-18T07:34:19.376Z,-1.88
2022-12-18T07:35:24.916Z,-1.87
2022-12-18T07:36:28.127Z,-1.89
2022-12-18T07:37:31.100Z,-1.80
2022-12-18T07:38:35.479Z,-1.75
2022-12-18T07:39:38.309Z,-1.71
2022-12-18T07:40:41.249Z,-1.65
2022-12-18T07:41:47.662Z,-1.58
2022-12-18T07:42:52.325Z,-1.49
2022-12-18T07:43:55.454Z,-1.49
2022-12-18T07:44:59.329Z,-1.45
2022-12-18T07:46:03.112Z,-1.38
2022-12-18T07:47:10.467Z,-1.40
2022-12-18T07:48:15.299Z,-1.41
2022-12-18T07:49:18.290Z,-1.40
2022-12-18T07:50:21.250Z,-1.34
2022-12-18T07:51:24.217Z,-1.36
2022-12-18T07:52:27.058Z,-1.35
2022-12-18T07:53:31.362Z,-1.34
2022-12-18T07:54:34.030Z,-1.36
2022-12-18T07:55:59.701Z,-1.33
2022-12-18T07:57:00.818Z,-1.39
2022-12-18T07:58:05.222Z,-1.49
2022-12-18T07:59:08.213Z,-1.45
2022-12-18T08:00:11.718Z,-1.55
2022-12-18T08:01:14.899Z,-1.56
2022-12-18T08:02:18.395Z,-1.56
2022-12-18T08:03:22.062Z,-1.55
2022-12-18T08:04:26.386Z,-1.53
2022-12-18T08:05:29.325Z,-1.52
2022-12-18T08:06:32.514Z,-1.56
2022-12-18T08:07:42.069Z,-1.52
2022-12-18T08:08:44.804Z,-1.57
2022-12-18T08:09:47.510Z,-1.51
2022-12-18T08:10:50.645Z,-1.47
2022-12-18T08:11:53.368Z,-1.46
2022-12-18T08:13:01.434Z,-1.51
2022-12-18T08:14:07.228Z,-1.41
2022-12-18T08:15:10.203Z,-1.42
2022-12-18T08:16:13.338Z,-1.45
2022-12-18T08:17:21.286Z,-1.37
2022-12-18T08:18:25.261Z,-1.36
2022-12-18T08:19:27.987Z,-1.40
2022-12-18T08:20:30.684Z,-1.34
2022-12-18T08:21:33.485Z,-1.39
2022-12-18T08:22:40.047Z,-1.34
2022-12-18T08:23:43.913Z,-1.42
2022-12-18T08:24:46.753Z,-1.33
2022-12-18T08:25:49.632Z,-1.39
2022-12-18T08:27:20.868Z,-1.32
2022-12-18T08:28:15.321Z,-1.33
2022-12-18T08:29:21.710Z,-1.31
2022-12-18T08:30:24.890Z,-1.33
2022-12-18T08:31:29.397Z,-1.29
2022-12-18T08:32:33.907Z,-1.31
2022-12-18T08:33:38.849Z,-1.34
2022-12-18T08:34:42.164Z,-1.29
2022-12-18T08:35:46.178Z,-1.24
2022-12-18T08:36:49.694Z,-1.23
2022-12-18T08:37:52.369Z,-1.24
2022-12-18T08:38:55.515Z,-1.25
2022-12-18T08:39:58.492Z,-1.16
2022-12-18T08:41:02.297Z,-1.07
2022-12-18T08:42:23.527Z,-1.07
2022-12-18T08:43:44.872Z,-1.13
2022-12-18T08:44:47.602Z,-1.23
2022-12-18T08:45:51.060Z,-1.20
2022-12-18T08:46:53.783Z,-1.20
2022-12-18T08:47:56.878Z,-1.18
2022-12-18T08:48:59.974Z,-1.21
2022-12-18T08:50:03.439Z,-1.13
2022-12-18T08:51:06.659Z,-1.16
2022-12-18T08:52:10.546Z,-1.17
2022-12-18T08:53:13.157Z,-1.15
2022-12-18T08:54:15.978Z,-1.14
2022-12-18T08:55:19.191Z,-1.13
2022-12-18T08:56:23.755Z,-1.18
2022-12-18T08:57:26.579Z,-1.12
2022-12-18T08:58:30.715Z,-1.10
2022-12-18T08:59:33.718Z,-1.06
2022-12-18T09:00:36.670Z,-1.04
2022-12-18T09:01:39.938Z,-0.98
2022-12-18T09:02:42.725Z,-0.98
2022-12-18T09:03:45.807Z,-0.94
2022-12-18T09:04:53.789Z,-0.98
2022-12-18T09:06:00.567Z,-1.12
2022-12-18T09:07:03.758Z,-1.13
2022-12-18T09:08:06.880Z,-1.06
2022-12-18T09:09:10.871Z,-1.07
2022-12-18T09:10:13.543Z,-1.06
2022-12-18T09:11:21.822Z,-1.11
2022-12-18T09:12:25.129Z,-1.05
2022-12-18T09:13:27.962Z,-0.98
2022-12-18T09:14:30.726Z,-0.94
2022-12-18T09:15:33.401Z,-0.91
2022-12-18T09:16:36.862Z,-0.96
2022-12-18T09:17:40.370Z,-0.89
2022-12-18T09:18:43.488Z,-0.84
2022-12-18T09:19:46.952Z,-0.76
2022-12-18T09:20:51.295Z,-0.69
2022-12-18T09:21:54.131Z,-0.60
2022-12-18T09:22:57.580Z,-0.56
2022-12-18T09:24:00.474Z,-0.60
2022-12-18T09:25:03.366Z,-0.62
2022-12-18T09:26:06.258Z,-0.63
2022-12-18T09:27:09.221Z,-0.66
2022-12-18T09:28:17.681Z,-0.68
2022-12-18T09:29:20.341Z,-0.61
2022-12-18T09:30:23.442Z,-0.65
2022-12-18T09:31:26.575Z,-0.63
2022-12-18T09:32:29.211Z,-0.65
2022-12-18T09:33:32.999Z,-0.64
2022-12-18T09:34:35.754Z,-0.66
2022-12-18T09:35:38.869Z,-0.59
2022-12-18T09:36:41.485Z,-0.58
2022-12-18T09:37:44.505Z,-0.51
2022-12-18T09:38:47.682Z,-0.52
2022-12-18T09:39:50.349Z,-0.53
2022-12-18T09:40:57.864Z,-0.53
2022-12-18T09:42:00.656Z,-0.52
2022-12-18T09:43:07.404Z,-0.50
2022-12-18T09:44:17.376Z,-0.55
2022-12-18T09:45:21.030Z,-0.51
2022-12-18T09:46:30.266Z,-0.46
2022-12-18T09:47:38.802Z,-0.35
2022-12-18T09:48:47.335Z,-0.31
2022-12-18T09:49:55.116Z,-0.24
2022-12-18T09:51:03.639Z,-0.05
2022-12-18T09:52:15.701Z,0.18
2022-12-18T09:53:27.952Z,0.15
2022-12-18T09:54:42.926Z,0.36
2022-12-18T09:55:48.111Z,0.74
2022-12-18T09:56:51.190Z,0.83
2022-12-18T09:58:01.316Z,0.83
2022-12-18T09:59:05.611Z,0.68
2022-12-18T10:00:11.727Z,0.66
2022-12-18T10:01:22.934Z,0.55
2022-12-18T10:02:27.942Z,0.67
2022-12-18T10:03:31.018Z,0.72
2022-12-18T10:04:33.895Z,0.71
2022-12-18T10:05:56.407Z,0.76
2022-12-18T10:07:10.699Z,0.95
2022-12-18T10:08:17.007Z,1.06
2022-12-18T10:09:32.019Z,1.47
2022-12-18T10:10:47.252Z,1.62
2022-12-18T10:11:54.345Z,1.97
2022-12-18T10:13:07.023Z,2.45
2022-12-18T10:14:36.840Z,2.23
2022-12-18T10:16:11.806Z,2.27
2022-12-18T10:17:20.377Z,2.14
2022-12-18T10:18:40.188Z,2.24
2022-12-18T10:19:57.729Z,2.10
2022-12-18T10:21:17.696Z,1.79
2022-12-18T10:22:25.653Z,1.68
2022-12-18T10:23:34.516Z,1.65
2022-12-18T10:24:55.550Z,1.28
2022-12-18T10:26:11.518Z,1.44
2022-12-18T10:27:22.658Z,2.00
2022-12-18T10:28:27.504Z,2.44
2022-12-18T10:29:30.344Z,2.24
2022-12-18T10:30:33.050Z,2.13
2022-12-18T10:31:36.828Z,2.41
2022-12-18T10:32:40.386Z,2.13
2022-12-18T10:33:43.340Z,1.82
2022-12-18T10:34:55.359Z,1.47
2022-12-18T10:36:02.751Z,1.26
2022-12-18T10:37:14.401Z,1.04
2022-12-18T10:38:17.298Z,1.01
2022-12-18T10:39:23.940Z,0.86
2022-12-18T10:40:26.610Z,0.76
2022-12-18T10:41:29.662Z,0.68
2022-12-18T10:42:33.097Z,0.61
2022-12-18T10:43:38.047Z,0.44
2022-12-18T10:44:40.744Z,0.44
2022-12-18T10:46:09.359Z,0.42
2022-12-18T10:47:20.448Z,0.34
2022-12-18T10:48:24.366Z,0.38
2022-12-18T10:49:30.804Z,0.27
2022-12-18T10:51:09.152Z,0.26
2022-12-18T10:52:25.831Z,0.25
2022-12-18T10:53:30.820Z,0.29
2022-12-18T10:54:36.103Z,0.30
2022-12-18T10:55:41.131Z,0.31
2022-12-18T10:56:44.977Z,0.31
2022-12-18T10:57:49.512Z,0.26
2022-12-18T10:59:07.755Z,0.29
2022-12-18T11:00:30.542Z,0.27
2022-12-18T11:01:48.585Z,0.25
2022-12-18T11:02:53.985Z,0.28
2022-12-18T11:04:09.145Z,0.26
2022-12-18T11:05:37.955Z,0.37
2022-12-18T11:06:58.279Z,0.31
2022-12-18T11:08:02.167Z,0.32
2022-12-18T11:09:13.252Z,0.33
2022-12-18T11:10:20.118Z,0.28
2022-12-18T11:11:24.444Z,0.33
2022-12-18T11:12:30.239Z,0.38
2022-12-18T11:13:33.131Z,0.28
2022-12-18T11:14:46.879Z,0.36
2022-12-18T11:15:51.157Z,0.32
2022-12-18T11:17:25.294Z,0.32
2022-12-18T11:18:21.679Z,0.29
2022-12-18T11:19:40.789Z,0.15
2022-12-18T11:20:58.173Z,0.17
2022-12-18T11:22:04.698Z,0.23
2022-12-18T11:23:14.759Z,0.32
2022-12-18T11:24:37.875Z,0.36
2022-12-18T11:25:51.801Z,0.41
2022-12-18T11:26:59.705Z,0.57
2022-12-18T11:28:27.063Z,0.68
2022-12-18T11:29:44.826Z,0.75
2022-12-18T11:30:49.290Z,0.84
2022-12-18T11:31:52.404Z,0.97
2022-12-18T11:32:59.742Z,1.02
2022-12-18T11:35:54.800Z,1.09
2022-12-18T11:37:00.208Z,1.65
2022-12-18T11:38:22.173Z,1.97
2022-12-18T11:39:40.494Z,1.78
2022-12-18T11:40:48.722Z,1.57
2022-12-18T11:42:10.429Z,1.41
2022-12-18T11:43:25.556Z,1.37
2022-12-18T11:44:36.980Z,1.25
2022-12-18T11:45:52.126Z,1.08
2022-12-18T11:47:03.560Z,0.93
2022-12-18T11:48:25.822Z,0.91
2022-12-18T11:49:40.257Z,0.81
2022-12-18T11:50:52.401Z,0.77
2022-12-18T11:52:04.041Z,0.79
2022-12-18T11:53:11.704Z,0.61
2022-12-18T11:54:17.257Z,0.70
2022-12-18T11:55:36.944Z,0.58
2022-12-18T11:56:53.793Z,0.56
2022-12-18T11:58:31.135Z,0.55
2022-12-18T11:59:40.902Z,0.61
2022-12-18T12:01:11.847Z,0.66
2022-12-18T12:02:42.804Z,0.66
2022-12-18T12:03:57.735Z,0.62
2022-12-18T12:05:19.323Z,0.76
2022-12-18T12:06:22.508Z,0.79
2022-12-18T12:07:59.940Z,0.82
2022-12-18T12:09:24.126Z,0.76
2022-12-18T12:11:00.534Z,0.78
2022-12-18T12:15:13.655Z,0.77
2022-12-18T12:16:26.085Z,0.80
2022-12-18T12:17:46.459Z,0.79
2022-12-18T12:19:25.081Z,0.80
2022-12-18T12:20:52.195Z,0.70
2022-12-18T12:22:19.693Z,0.68
2022-12-18T12:23:28.180Z,0.67
2022-12-18T12:24:56.823Z,0.71
2022-12-18T12:26:49.402Z,0.68
2022-12-18T12:28:04.371Z,0.59
2022-12-18T12:29:45.204Z,0.63
2022-12-18T12:32:18.005Z,0.60
2022-12-18T12:33:38.983Z,0.61
2022-12-18T12:35:17.894Z,0.63
2022-12-18T12:37:56.162Z,0.55
2022-12-18T12:39:06.653Z,0.53
2022-12-18T12:40:49.137Z,0.45
2022-12-18T12:41:59.802Z,0.18
2022-12-18T12:44:56.275Z,0.13
2022-12-18T12:46:15.358Z,-0.02
2022-12-18T12:47:24.175Z,0.01
2022-12-18T12:48:45.231Z,-0.03
2022-12-18T12:49:50.875Z,0.01
2022-12-18T12:50:56.498Z,-0.04
2022-12-18T12:52:09.290Z,0.05
2022-12-18T12:53:34.241Z,0.02
2022-12-18T12:54:38.182Z,-0.04
2022-12-18T12:55:43.759Z,-0.01
2022-12-18T12:57:20.475Z,0.04
2022-12-18T12:58:49.150Z,0.10
2022-12-18T13:00:21.512Z,0.13
2022-12-18T13:02:15.427Z,0.16
2022-12-18T13:06:04.447Z,0.15
2022-12-18T13:07:20.697Z,0.12
2022-12-18T13:08:34.702Z,0.11
2022-12-18T13:10:35.925Z,0.09
2022-12-18T13:15:39.309Z,0.19
2022-12-18T13:16:43.108Z,0.16
2022-12-18T13:17:47.043Z,0.16
2022-12-18T13:19:03.911Z,0.13
2022-12-18T13:20:17.079Z,0.10
2022-12-18T13:21:30.854Z,0.06
2022-12-18T13:22:44.170Z,0.11
2022-12-18T13:23:46.973Z,0.05
2022-12-18T13:24:50.538Z,0.09
2022-12-18T13:26:11.305Z,0.14
2022-12-18T13:27:45.411Z,0.13
2022-12-18T13:28:48.687Z,0.10
2022-12-18T13:29:52.897Z,0.14
2022-12-18T13:30:57.728Z,0.12
2022-12-18T13:32:02.017Z,0.11
2022-12-18T13:33:25.741Z,0.04
2022-12-18T13:34:32.678Z,0.03
2022-12-18T13:35:40.842Z,0.03
2022-12-18T13:36:44.036Z,-0.01
2022-12-18T13:37:54.240Z,0.01
2022-12-18T13:41:14.574Z,-0.02
2022-12-18T13:43:13.245Z,-0.04
2022-12-18T13:44:41.900Z,-0.02
2022-12-18T13:45:51.528Z,-0.01
2022-12-18T13:47:26.210Z,-0.02
2022-12-18T13:49:08.513Z,0.00
2022-12-18T13:53:17.390Z,-0.06
2022-12-18T13:54:22.256Z,-0.10
2022-12-18T13:58:12.984Z,-0.13
2022-12-18T14:03:46.925Z,-0.16
2022-12-18T14:04:52.188Z,-0.04
2022-12-18T14:08:17.529Z,0.04
2022-12-18T14:13:33.226Z,0.07
2022-12-18T14:14:36.258Z,-0.04
2022-12-18T14:18:33.498Z,-0.02
2022-12-18T14:19:37.098Z,-0.10
2022-12-18T14:20:46.505Z,-0.17
2022-12-18T14:22:30.355Z,-0.30
2022-12-18T14:28:16.588Z,-0.37
2022-12-18T14:32:05.831Z,-0.49
2022-12-18T14:38:24.339Z,-0.55
2022-12-18T14:39:27.286Z,-0.54
2022-12-18T14:43:00.359Z,-0.60
2022-12-18T14:44:08.300Z,-0.60
2022-12-18T14:47:44.894Z,-0.59
2022-12-18T14:48:49.025Z,-0.62
2022-12-18T14:49:51.709Z,-0.59
2022-12-18T14:51:11.402Z,-0.64
2022-12-18T14:52:34.276Z,-0.65
2022-12-18T14:54:15.421Z,-0.63
2022-12-18T14:55:23.858Z,-0.62
2022-12-18T14:56:45.613Z,-0.62
2022-12-18T14:57:55.436Z,-0.62
2022-12-18T15:01:36.321Z,-0.64
2022-12-18T15:02:40.980Z,-0.58
2022-12-18T15:03:46.523Z,-0.57
2022-12-18T15:05:11.307Z,-0.58
2022-12-18T15:06:18.691Z,-0.58
2022-12-18T15:07:28.505Z,-0.58
2022-12-18T15:08:38.089Z,-0.57
2022-12-18T15:09:53.505Z,-0.54
2022-12-18T15:10:58.309Z,-0.57
2022-12-18T15:12:03.682Z,-0.56
2022-12-18T15:13:07.466Z,-0.58
2022-12-18T15:14:33.111Z,-0.55
2022-12-18T15:15:43.953Z,-0.55
2022-12-18T15:16:53.029Z,-0.56
2022-12-18T15:18:03.677Z,-0.58
2022-12-18T15:19:09.858Z,-0.57
2022-12-18T15:20:15.472Z,-0.59
2022-12-18T15:21:21.854Z,-0.57
2022-12-18T15:22:34.929Z,-0.57
2022-12-18T15:23:38.888Z,-0.57
2022-12-18T15:24:45.209Z,-0.55
2022-12-18T15:26:16.900Z,-0.52
2022-12-18T15:27:39.486Z,-0.51
2022-12-18T15:29:08.243Z,-0.50
2022-12-18T15:30:31.316Z,-0.53
2022-12-18T15:31:36.828Z,-0.55
2022-12-18T15:32:41.585Z,-0.56
2022-12-18T15:33:47.414Z,-0.54
2022-12-18T15:34:51.270Z,-0.57
2022-12-18T15:36:03.992Z,-0.58
2022-12-18T15:37:09.645Z,-0.60
2022-12-18T15:38:13.709Z,-0.62
2022-12-18T15:39:18.074Z,-0.62
2022-12-18T15:40:25.355Z,-0.62
2022-12-18T15:41:29.300Z,-0.60
2022-12-18T15:42:51.797Z,-0.58
2022-12-18T15:43:55.739Z,-0.89
2022-12-18T15:44:59.831Z,-0.59
2022-12-18T15:46:08.332Z,-0.61
2022-12-18T15:47:14.990Z,-0.61
2022-12-18T15:48:23.219Z,-0.57
2022-12-18T15:49:27.272Z,-0.58
2022-12-18T15:50:31.009Z,-0.58
2022-12-18T15:51:39.817Z,-0.57
2022-12-18T15:52:47.080Z,-0.59
2022-12-18T15:53:56.604Z,-0.58
2022-12-18T15:55:18.925Z,-0.61
2022-12-18T15:56:42.127Z,-0.60
2022-12-18T15:57:47.391Z,-0.58
2022-12-18T15:58:53.527Z,-0.54
2022-12-18T15:59:59.649Z,-0.55
2022-12-18T16:01:03.585Z,-0.55
2022-12-18T16:02:20.836Z,-0.57
2022-12-18T16:03:24.666Z,-0.58
2022-12-18T16:04:38.580Z,-0.58
2022-12-18T16:05:43.870Z,-0.63
2022-12-18T16:08:12.348Z,-0.66
2022-12-18T16:09:15.749Z,-0.64
2022-12-18T16:10:19.638Z,-0.63
2022-12-18T16:12:04.423Z,-0.65
2022-12-18T16:13:16.973Z,-0.67
2022-12-18T16:14:25.284Z,-0.66
2022-12-18T16:15:29.265Z,-0.75
2022-12-18T16:16:35.066Z,-0.75
2022-12-18T16:17:40.181Z,-0.78
2022-12-18T16:18:44.557Z,-0.79
2022-12-18T16:19:49.447Z,-0.78
2022-12-18T16:20:53.776Z,-0.81
2022-12-18T16:21:59.462Z,-0.79
2022-12-18T16:23:04.036Z,-0.78
2022-12-18T16:24:19.667Z,-0.78
2022-12-18T16:25:27.759Z,-0.81
2022-12-18T16:26:32.013Z,-0.84
2022-12-18T16:27:36.141Z,-0.87
2022-12-18T16:28:45.239Z,-0.88
2022-12-18T16:29:52.259Z,-0.88
2022-12-18T16:30:59.330Z,-0.90
2022-12-18T16:32:05.968Z,-1.17
2022-12-18T16:33:12.328Z,-0.95
2022-12-18T16:34:29.927Z,-0.95
2022-12-18T16:35:33.752Z,-0.99
2022-12-18T16:36:37.631Z,-0.98
2022-12-18T16:37:42.976Z,-0.98
2022-12-18T16:38:48.305Z,-0.96
2022-12-18T16:39:51.368Z,-0.94
2022-12-18T16:41:15.455Z,-0.95
2022-12-18T16:42:21.538Z,-0.95
2022-12-18T16:43:25.971Z,-0.96
2022-12-18T16:44:29.489Z,-0.97
2022-12-18T16:45:34.399Z,-0.97
2022-12-18T16:46:38.993Z,-0.99
2022-12-18T16:47:43.563Z,-1.01
2022-12-18T16:48:47.069Z,-1.06
2022-12-18T16:49:53.744Z,-1.01
2022-12-18T16:51:04.498Z,-0.99
2022-12-18T16:52:11.703Z,-1.02
2022-12-18T16:53:18.391Z,-1.06
2022-12-18T16:54:22.726Z,-1.04
2022-12-18T16:55:27.727Z,-1.07
2022-12-18T16:56:32.455Z,-1.11
2022-12-18T16:57:36.678Z,-1.11
2022-12-18T16:58:41.221Z,-1.13
2022-12-18T16:59:47.601Z,-1.14
2022-12-18T17:00:52.563Z,-1.12
2022-12-18T17:01:57.862Z,-1.16
2022-12-18T17:03:03.607Z,-1.18
2022-12-18T17:04:09.098Z,-1.20
2022-12-18T17:05:12.970Z,-1.23
2022-12-18T17:06:16.619Z,-1.23
2022-12-18T17:07:21.366Z,-1.23
2022-12-18T17:08:25.888Z,-1.23
2022-12-18T17:09:30.759Z,-1.19
2022-12-18T17:10:36.527Z,-1.24
2022-12-18T17:11:42.017Z,-1.28
2022-12-18T17:12:46.429Z,-1.25
2022-12-18T17:13:51.326Z,-1.26
2022-12-18T17:14:55.358Z,-1.17
2022-12-18T17:16:11.473Z,-1.19
2022-12-18T17:17:23.596Z,-1.20
2022-12-18T17:18:28.344Z,-1.22
2022-12-18T17:19:31.418Z,-1.21
2022-12-18T17:20:35.212Z,-1.20
2022-12-18T17:21:39.000Z,-1.20
2022-12-18T17:22:44.656Z,-1.24
2022-12-18T17:23:56.290Z,-1.20
2022-12-18T17:25:00.231Z,-1.19
2022-12-18T17:26:07.875Z,-1.22
2022-12-18T17:27:13.730Z,-1.26
2022-12-18T17:28:17.368Z,-1.28
2022-12-18T17:29:23.310Z,-1.28
2022-12-18T17:30:30.336Z,-1.30
2022-12-18T17:31:34.580Z,-1.28
2022-12-18T17:32:38.464Z,-1.35
2022-12-18T17:33:42.911Z,-1.36
2022-12-18T17:34:47.471Z,-1.42
2022-12-18T17:35:51.752Z,-1.39
2022-12-18T17:36:55.806Z,-1.35
2022-12-18T17:38:00.179Z,-1.40
2022-12-18T17:39:06.880Z,-1.43
2022-12-18T17:40:11.121Z,-1.45
2022-12-18T17:41:37.037Z,-1.49
2022-12-18T17:43:21.442Z,-1.47
2022-12-18T17:46:42.327Z,-1.52
2022-12-18T17:47:51.018Z,-1.48
2022-12-18T17:49:00.287Z,-1.51
2022-12-18T17:50:05.463Z,-1.50
2022-12-18T17:51:11.543Z,-1.51
2022-12-18T17:52:15.251Z,-1.52
2022-12-18T17:53:22.178Z,-1.55
2022-12-18T17:54:26.358Z,-1.58
2022-12-18T17:55:30.221Z,-1.61
2022-12-18T17:56:42.018Z,-1.63
2022-12-18T17:57:45.926Z,-1.69
2022-12-18T17:58:51.639Z,-1.72
2022-12-18T17:59:55.335Z,-1.79
2022-12-18T18:01:01.488Z,-1.81
2022-12-18T18:02:05.700Z,-1.83
2022-12-18T18:03:11.186Z,-1.87
2022-12-18T18:04:16.202Z,-1.88
2022-12-18T18:05:20.091Z,-1.86
2022-12-18T18:06:24.571Z,-1.85
2022-12-18T18:07:28.755Z,-1.85
2022-12-18T18:08:34.606Z,-1.86
2022-12-18T18:09:45.877Z,-1.87
2022-12-18T18:10:50.383Z,-1.86
2022-12-18T18:12:12.771Z,-1.89
2022-12-18T18:13:46.437Z,-1.87
2022-12-18T18:14:51.013Z,-1.89
2022-12-18T18:15:59.881Z,-1.91
2022-12-18T18:17:04.804Z,-1.91
2022-12-18T18:18:09.099Z,-1.88
2022-12-18T18:19:19.585Z,-1.91
2022-12-18T18:20:23.188Z,-1.93
2022-12-18T18:21:27.908Z,-1.92
2022-12-18T18:22:33.128Z,-1.91
2022-12-18T18:23:37.445Z,-1.94
2022-12-18T18:24:45.530Z,-1.91
2022-12-18T18:25:50.004Z,-1.95
2022-12-18T18:27:00.314Z,-1.97
2022-12-18T18:28:05.355Z,-1.97
2022-12-18T18:29:14.666Z,-1.97
2022-12-18T18:30:20.675Z,-2.01
2022-12-18T18:31:24.612Z,-2.10
2022-12-18T18:32:28.399Z,-2.08
2022-12-18T18:33:35.812Z,-2.12
2022-12-18T18:34:40.432Z,-2.15
2022-12-18T18:35:54.558Z,-2.14
2022-12-18T18:37:00.457Z,-2.14
2022-12-18T18:38:05.466Z,-2.19
2022-12-18T18:39:10.035Z,-2.15
2022-12-18T18:40:14.921Z,-2.20
2022-12-18T18:41:24.588Z,-2.19
2022-12-18T18:42:29.394Z,-2.15
2022-12-18T18:43:34.229Z,-2.19
2022-12-18T18:44:45.761Z,-2.22
2022-12-18T18:46:01.065Z,-2.22
2022-12-18T18:47:06.956Z,-2.26
2022-12-18T18:48:14.656Z,-2.28
2022-12-18T18:49:18.680Z,-2.31
2022-12-18T18:50:28.353Z,-2.32
2022-12-18T18:51:35.278Z,-2.33
2022-12-18T18:52:40.478Z,-2.35
2022-12-18T18:53:50.165Z,-2.35
2022-12-18T18:55:12.419Z,-2.37
2022-12-18T18:57:57.386Z,-2.37
2022-12-18T18:59:02.175Z,-2.42
2022-12-18T19:00:06.365Z,-2.79
2022-12-18T19:01:16.586Z,-2.50
2022-12-18T19:02:21.801Z,-2.47
2022-12-18T19:03:26.582Z,-2.47
2022-12-18T19:04:31.365Z,-2.47
2022-12-18T19:05:36.443Z,-2.47
2022-12-18T19:06:41.616Z,-2.48
2022-12-18T19:07:45.824Z,-2.49
2022-12-18T19:08:51.948Z,-2.49
2022-12-18T19:09:56.079Z,-2.51
2022-12-18T19:11:04.379Z,-2.49
2022-12-18T19:12:30.199Z,-2.53
2022-12-18T19:13:35.892Z,-2.53
2022-12-18T19:14:43.051Z,-2.54
2022-12-18T19:15:56.249Z,-2.56
2022-12-18T19:17:04.962Z,-2.56
2022-12-18T19:18:28.548Z,-2.56
2022-12-18T19:20:22.356Z,-2.59
2022-12-18T19:21:26.691Z,-2.58
2022-12-18T19:22:31.219Z,-2.60
2022-12-18T19:23:38.195Z,-2.60
2022-12-18T19:24:42.736Z,-2.60
2022-12-18T19:25:50.664Z,-2.62
2022-12-18T19:26:55.404Z,-2.62
2022-12-18T19:28:01.857Z,-2.65
2022-12-18T19:29:10.654Z,-2.62
2022-12-18T19:30:28.018Z,-2.62
2022-12-18T19:31:37.212Z,-2.66
2022-12-18T19:32:43.771Z,-2.69
2022-12-18T19:33:49.764Z,-2.71
2022-12-18T19:34:58.784Z,-2.76
2022-12-18T19:36:24.448Z,-2.72
2022-12-18T19:37:30.083Z,-2.73
2022-12-18T19:38:33.976Z,-2.77
2022-12-18T19:39:38.138Z,-2.77
2022-12-18T19:40:43.412Z,-2.78
2022-12-18T19:41:48.050Z,-2.74
2022-12-18T19:42:52.580Z,-2.79
2022-12-18T19:43:59.103Z,-2.80
2022-12-18T19:45:03.992Z,-2.82
2022-12-18T19:46:08.715Z,-2.83
2022-12-18T19:47:12.725Z,-2.84
2022-12-18T19:48:16.370Z,-2.84
2022-12-18T19:49:21.372Z,-2.86
2022-12-18T19:50:25.484Z,-2.88